Time;durP1;ratioP1;P1;durP2;ratioP2;P2;SDS_P1;SDS_P2;PMS_P1;PMS_P2;Temp;Humidity;BMP_temperature;BMP_pressure;BME280_temperature;BME280_humidity;BME280_pressure;Samples;Min_cycle;Max_cycle;Signal;HPM_P1;HPM_P2
2021/07/23 00:02:03;;;;;;;8.90;4.97;;;;;;;15.25;44.58;95820.44;4987786;28;20282;-69
2021/07/23 00:04:29;;;;;;;8.18;5.43;;;;;;;15.22;43.94;95816.31;4986445;28;20480;-69
2021/07/23 00:06:54;;;;;;;8.02;5.32;;;;;;;15.16;44.90;95819.78;4987715;28;20464;-69
2021/07/23 00:09:19;;;;;;;6.85;4.97;;;;;;;15.10;44.78;95815.25;4987748;28;20042;-69
2021/07/23 00:11:45;;;;;;;7.90;5.22;;;;;;;15.05;44.68;95812.34;4986019;28;20034;-69
2021/07/23 00:14:10;;;;;;;7.93;5.40;;;;;;;15.00;44.35;95815.63;4988143;28;20045;-69
2021/07/23 00:16:36;;;;;;;7.95;5.15;;;;;;;14.95;44.67;95816.22;4987092;28;20037;-69
2021/07/23 00:19:01;;;;;;;8.93;6.15;;;;;;;14.90;45.36;95810.66;4988380;28;20034;-69
2021/07/23 00:21:26;;;;;;;8.15;5.80;;;;;;;14.84;45.25;95817.66;4987515;28;20085;-69
2021/07/23 00:23:52;;;;;;;9.43;5.85;;;;;;;14.80;45.03;95812.88;4987811;28;20320;-70
2021/07/23 00:26:19;;;;;;;7.90;5.70;;;;;;;14.77;44.37;95810.59;4987349;28;20443;-69
2021/07/23 00:28:44;;;;;;;7.50;5.68;;;;;;;14.69;45.27;95809.69;4987600;28;20065;-69
2021/07/23 00:31:10;;;;;;;8.25;5.72;;;;;;;14.64;44.71;95806.81;4987065;28;20034;-69
2021/07/23 00:33:35;;;;;;;8.25;5.70;;;;;;;14.60;45.00;95802.88;4987310;28;20038;-69
2021/07/23 00:36:01;;;;;;;8.13;5.78;;;;;;;14.56;45.10;95806.97;4987426;28;20496;-69
2021/07/23 00:38:27;;;;;;;8.20;5.68;;;;;;;14.52;45.52;95803.84;4986893;28;20649;-69
2021/07/23 00:40:52;;;;;;;9.68;6.63;;;;;;;14.50;45.00;95803.25;4987085;28;20037;-69
2021/07/23 00:43:18;;;;;;;8.75;6.10;;;;;;;14.45;45.24;95794.97;4986579;28;20047;-70
2021/07/23 00:45:43;;;;;;;10.55;5.75;;;;;;;14.41;45.06;95799.91;4987295;28;20570;-69
2021/07/23 00:48:08;;;;;;;7.78;5.85;;;;;;;14.34;45.94;95799.88;4983321;28;20069;-69
2021/07/23 00:50:34;;;;;;;8.57;6.20;;;;;;;14.30;45.71;95805.81;4986862;28;20150;-69
2021/07/23 00:52:59;;;;;;;9.73;6.80;;;;;;;14.25;46.05;95802.91;4985658;28;20026;-69
2021/07/23 00:55:25;;;;;;;9.80;6.82;;;;;;;14.29;45.48;95807.69;4987004;28;20038;-69
2021/07/23 00:57:51;;;;;;;9.60;6.57;;;;;;;14.26;45.87;95807.22;4985692;28;20159;-69
2021/07/23 01:00:17;;;;;;;8.10;6.22;;;;;;;14.19;45.99;95808.03;4985607;28;20053;-69
2021/07/23 01:02:42;;;;;;;9.98;6.72;;;;;;;14.13;45.80;95799.94;4986312;28;20242;-69
2021/07/23 01:05:08;;;;;;;8.88;6.45;;;;;;;14.05;45.94;95798.25;4985623;28;20127;-69
2021/07/23 01:07:35;;;;;;;8.38;5.68;;;;;;;14.02;46.10;95795.94;4986065;28;20050;-69
2021/07/23 01:10:01;;;;;;;9.23;6.68;;;;;;;13.97;47.09;95799.22;4986325;28;20125;-69
2021/07/23 01:12:28;;;;;;;7.63;6.15;;;;;;;13.97;46.60;95798.41;4985693;28;20030;-69
2021/07/23 01:14:53;;;;;;;12.40;6.32;;;;;;;13.96;46.49;95797.56;4984482;28;20791;-69
2021/07/23 01:17:19;;;;;;;8.32;6.40;;;;;;;13.90;46.33;95796.50;4987242;28;20022;-69
2021/07/23 01:20:02;;;;;;;9.65;6.60;;;;;;;13.85;45.85;95792.72;4984235;28;20790;-69
2021/07/23 01:22:28;;;;;;;9.40;6.15;;;;;;;13.82;46.66;95784.06;4981637;28;20065;-69
2021/07/23 01:24:54;;;;;;;8.38;6.50;;;;;;;13.83;46.75;95782.19;4986686;28;20149;-70
2021/07/23 01:27:19;;;;;;;8.88;6.38;;;;;;;13.81;46.87;95784.25;4985043;28;20108;-69
2021/07/23 01:29:45;;;;;;;9.32;6.70;;;;;;;13.77;46.49;95785.69;4985605;28;20038;-69
2021/07/23 01:32:10;;;;;;;8.85;6.03;;;;;;;13.82;46.13;95781.41;4986278;28;20058;-69
2021/07/23 01:34:36;;;;;;;8.77;6.40;;;;;;;13.83;46.81;95780.38;4985810;28;20026;-69
2021/07/23 01:37:02;;;;;;;11.43;6.50;;;;;;;13.81;46.81;95782.38;4980417;28;20162;-69
2021/07/23 01:39:27;;;;;;;8.35;6.43;;;;;;;13.77;46.89;95783.81;4986048;28;20687;-69
2021/07/23 01:41:52;;;;;;;8.63;6.20;;;;;;;13.69;46.95;95786.63;4985956;28;20057;-69
2021/07/23 01:44:18;;;;;;;7.53;5.85;;;;;;;13.64;47.36;95776.53;4986827;28;20038;-69
2021/07/23 01:46:43;;;;;;;9.02;6.00;;;;;;;13.63;47.16;95777.53;4983509;28;20084;-69
2021/07/23 01:49:09;;;;;;;8.68;6.18;;;;;;;13.61;46.97;95774.22;4984850;28;20480;-69
2021/07/23 01:51:34;;;;;;;7.40;5.68;;;;;;;13.59;46.78;95770.91;4985875;28;20065;-69
2021/07/23 01:54:00;;;;;;;8.13;6.05;;;;;;;13.56;46.29;95776.66;4985992;28;20108;-69
2021/07/23 01:56:25;;;;;;;8.48;5.95;;;;;;;13.50;46.27;95772.88;4986139;28;20247;-69
2021/07/23 01:58:51;;;;;;;8.13;6.00;;;;;;;13.43;47.47;95780.06;4985910;28;20038;-69
2021/07/23 02:01:16;;;;;;;9.55;6.30;;;;;;;13.37;47.94;95770.13;4985854;28;20349;-69
2021/07/23 02:03:41;;;;;;;7.53;5.47;;;;;;;13.36;47.76;95771.94;4985333;28;20040;-69
2021/07/23 02:06:07;;;;;;;8.57;6.07;;;;;;;13.35;47.16;95769.47;4981697;28;20089;-69
2021/07/23 02:08:32;;;;;;;8.18;6.03;;;;;;;13.30;47.29;95770.06;4985759;28;20062;-71
2021/07/23 02:10:58;;;;;;;8.43;5.80;;;;;;;13.32;46.63;95765.34;4985986;28;20088;-69
2021/07/23 02:13:23;;;;;;;8.30;5.90;;;;;;;13.33;47.27;95768.84;4983879;28;20081;-69
2021/07/23 02:15:49;;;;;;;7.35;5.78;;;;;;;13.30;47.29;95764.72;4985801;28;20105;-69
2021/07/23 02:18:15;;;;;;;8.07;5.72;;;;;;;13.33;46.74;95763.50;4985607;28;20495;-69
2021/07/23 02:20:41;;;;;;;8.85;5.47;;;;;;;13.31;46.95;95766.38;4986297;28;20136;-70
2021/07/23 02:23:06;;;;;;;8.52;5.63;;;;;;;13.29;46.82;95763.88;4985444;28;20034;-69
2021/07/23 02:25:32;;;;;;;8.15;5.60;;;;;;;13.26;47.11;95758.09;4985518;28;20488;-70
2021/07/23 02:27:57;;;;;;;7.55;5.80;;;;;;;13.27;47.11;95760.59;4986076;28;20128;-70
2021/07/23 02:30:23;;;;;;;7.75;5.30;;;;;;;13.27;47.28;95757.06;4985549;28;20038;-69
2021/07/23 02:32:48;;;;;;;7.80;5.65;;;;;;;13.22;47.49;95759.50;4985840;28;20038;-69
2021/07/23 02:35:14;;;;;;;6.65;5.20;;;;;;;13.16;47.41;95761.09;4985141;28;20042;-70
2021/07/23 02:37:39;;;;;;;7.68;5.40;;;;;;;13.20;47.09;95751.66;4985017;28;20466;-69
2021/07/23 02:40:06;;;;;;;7.63;5.75;;;;;;;13.16;47.65;95756.56;4985268;28;20045;-70
2021/07/23 02:42:31;;;;;;;9.52;5.95;;;;;;;13.12;47.80;95759.81;4985564;28;20093;-69
2021/07/23 02:44:57;;;;;;;7.50;5.22;;;;;;;13.11;47.59;95755.47;4986004;28;20034;-70
2021/07/23 02:47:22;;;;;;;7.57;5.40;;;;;;;13.10;47.56;95751.16;4981434;28;20030;-70
2021/07/23 02:49:48;;;;;;;7.82;5.30;;;;;;;13.07;47.69;95746.19;4986031;28;20045;-70
2021/07/23 02:52:13;;;;;;;8.60;6.00;;;;;;;13.05;47.70;95749.88;4985445;28;20495;-70
2021/07/23 02:54:38;;;;;;;8.45;5.53;;;;;;;13.03;47.91;95749.22;4982408;28;20038;-70
2021/07/23 02:57:04;;;;;;;8.40;5.28;;;;;;;13.05;47.70;95747.22;4985541;28;20038;-70
2021/07/23 02:59:29;;;;;;;6.63;5.07;;;;;;;13.06;47.71;95748.03;4980095;28;20400;-70
2021/07/23 03:01:55;;;;;;;7.00;5.38;;;;;;;13.04;47.67;95748.22;4985054;28;20027;-70
2021/07/23 03:04:20;;;;;;;7.70;5.25;;;;;;;13.00;47.36;95748.78;4984246;28;20491;-70
2021/07/23 03:06:46;;;;;;;6.55;4.75;;;;;;;12.95;47.86;95737.84;4985000;28;20288;-69
2021/07/23 03:09:11;;;;;;;6.97;4.90;;;;;;;12.93;47.62;95733.47;4989135;28;20432;-69
2021/07/23 03:11:36;;;;;;;8.10;5.28;;;;;;;12.93;47.48;95741.50;4988992;28;20450;-69
2021/07/23 03:14:02;;;;;;;7.05;5.00;;;;;;;12.91;47.51;95732.84;4989058;28;20035;-70
2021/07/23 03:16:27;;;;;;;7.30;5.00;;;;;;;12.90;47.66;95733.03;4988862;28;20026;-69
2021/07/23 03:18:53;;;;;;;7.25;5.03;;;;;;;12.92;48.04;95739.03;4987612;28;20752;-69
2021/07/23 03:21:21;;;;;;;8.45;4.93;;;;;;;12.89;47.60;95731.41;4988622;28;20470;-70
2021/07/23 03:23:47;;;;;;;6.97;4.80;;;;;;;12.89;48.20;95729.53;4988279;28;20507;-70
2021/07/23 03:26:13;;;;;;;6.32;4.60;;;;;;;12.89;47.86;95724.19;4988310;28;20031;-70
2021/07/23 03:28:38;;;;;;;6.68;4.68;;;;;;;12.95;47.40;95719.13;4988417;28;20495;-69
2021/07/23 03:31:03;;;;;;;8.40;5.07;;;;;;;12.95;48.24;95724.47;4988912;28;20383;-69
2021/07/23 03:33:29;;;;;;;7.70;5.25;;;;;;;12.90;47.70;95719.69;4988467;28;20030;-70
2021/07/23 03:35:54;;;;;;;7.22;5.15;;;;;;;12.85;48.28;95722.91;4988492;28;20133;-70
2021/07/23 03:38:20;;;;;;;7.82;5.30;;;;;;;12.83;48.41;95721.47;4988290;28;20038;-70
2021/07/23 03:40:45;;;;;;;7.15;5.10;;;;;;;12.80;48.16;95720.84;4988819;28;20033;-70
2021/07/23 03:43:11;;;;;;;7.63;5.40;;;;;;;12.80;48.13;95720.00;4988116;28;20385;-70
2021/07/23 03:45:36;;;;;;;7.07;5.00;;;;;;;12.78;48.27;95716.69;4988880;28;20584;-69
2021/07/23 03:48:02;;;;;;;6.75;5.00;;;;;;;12.78;48.19;95727.38;4983209;28;20491;-70
2021/07/23 03:50:27;;;;;;;6.78;5.07;;;;;;;12.78;47.67;95722.03;4988267;28;20468;-70
2021/07/23 03:52:53;;;;;;;6.18;4.82;;;;;;;12.77;47.99;95718.53;4988635;28;20049;-69
2021/07/23 03:55:18;;;;;;;7.43;4.70;;;;;;;12.78;47.71;95716.69;4988030;28;20046;-70
2021/07/23 03:57:44;;;;;;;7.57;5.03;;;;;;;12.79;47.78;95719.16;4988093;28;20034;-69
2021/07/23 04:00:10;;;;;;;6.82;4.80;;;;;;;12.82;47.75;95715.31;4987766;28;20039;-70
2021/07/23 04:02:35;;;;;;;7.00;4.72;;;;;;;12.83;47.72;95713.44;4987947;28;20110;-72
2021/07/23 04:05:01;;;;;;;6.47;4.80;;;;;;;12.83;47.82;95708.94;4986415;28;20037;-70
2021/07/23 04:07:30;;;;;;;7.55;5.28;;;;;;;12.84;46.96;95709.75;4987497;28;20062;-70
2021/07/23 04:09:58;;;;;;;7.88;4.70;;;;;;;12.85;47.53;95708.75;4987261;28;20400;-69
2021/07/23 04:12:23;;;;;;;7.53;5.18;;;;;;;12.85;48.00;95706.88;4988184;28;20132;-70
2021/07/23 04:14:49;;;;;;;6.38;4.78;;;;;;;12.86;48.04;95702.38;4987237;28;20030;-70
2021/07/23 04:17:14;;;;;;;6.28;4.75;;;;;;;12.91;48.07;95703.47;4988373;28;20652;-70
2021/07/23 04:19:39;;;;;;;7.10;5.40;;;;;;;12.98;47.78;95708.88;4987511;28;20045;-70
2021/07/23 04:22:05;;;;;;;7.32;5.05;;;;;;;13.10;47.35;95709.22;4987497;28;20087;-70
2021/07/23 04:24:30;;;;;;;6.93;5.18;;;;;;;13.14;47.14;95705.16;4987571;28;20170;-69
2021/07/23 04:26:57;;;;;;;7.82;5.07;;;;;;;13.19;46.91;95707.22;4986917;28;20039;-70
2021/07/23 04:29:23;;;;;;;7.38;5.07;;;;;;;13.23;47.10;95705.84;4987159;28;20082;-70
2021/07/23 04:31:48;;;;;;;8.07;4.93;;;;;;;13.27;47.08;95708.94;4986616;28;20107;-69
2021/07/23 04:34:13;;;;;;;8.15;5.57;;;;;;;13.34;46.92;95709.00;4987109;28;20041;-70
2021/07/23 04:36:39;;;;;;;6.57;4.90;;;;;;;13.41;47.38;95708.03;4986924;28;20038;-70
2021/07/23 04:39:05;;;;;;;6.80;5.22;;;;;;;13.51;46.95;95709.53;4985310;28;20054;-69
2021/07/23 04:41:31;;;;;;;6.65;5.25;;;;;;;13.62;46.65;95709.00;4986572;28;20629;-70
2021/07/23 04:43:56;;;;;;;7.20;5.20;;;;;;;13.69;46.28;95712.56;4987320;28;20034;-70
2021/07/23 04:46:21;;;;;;;8.27;5.55;;;;;;;13.78;46.14;95709.72;4986240;28;20122;-70
2021/07/23 04:48:47;;;;;;;7.25;5.60;;;;;;;13.86;46.17;95704.22;4981448;28;20419;-70
2021/07/23 04:51:12;;;;;;;7.38;5.45;;;;;;;13.92;46.16;95716.84;4985860;28;20081;-70
2021/07/23 04:53:38;;;;;;;10.07;5.60;;;;;;;13.97;46.26;95712.75;4986725;28;20039;-69
2021/07/23 04:56:05;;;;;;;7.63;5.28;;;;;;;14.05;46.00;95713.41;4986420;28;20048;-70
2021/07/23 04:58:31;;;;;;;6.90;5.50;;;;;;;14.13;46.08;95716.94;4980149;28;20038;-70
2021/07/23 05:00:56;;;;;;;9.07;5.13;;;;;;;14.20;45.72;95710.59;4986458;28;20373;-70
2021/07/23 05:03:35;;;;;;;7.65;5.40;;;;;;;14.30;45.89;95712.06;4986471;28;20042;-70
2021/07/23 05:06:01;;;;;;;8.65;5.60;;;;;;;14.44;45.65;95707.59;4985917;28;20034;-69
2021/07/23 05:08:27;;;;;;;7.78;5.65;;;;;;;14.57;45.40;95714.88;4968638;28;20046;-70
2021/07/23 05:10:52;;;;;;;9.48;5.47;;;;;;;14.67;45.32;95717.16;4986133;28;20050;-70
2021/07/23 05:13:19;;;;;;;10.80;5.80;;;;;;;14.69;45.39;95709.75;4980499;28;20419;-70
2021/07/23 05:15:45;;;;;;;8.23;5.70;;;;;;;14.76;45.28;95710.63;4994316;28;20725;-70
2021/07/23 05:18:10;;;;;;;9.05;5.75;;;;;;;14.87;45.26;95714.56;4986006;28;20022;-70
2021/07/23 05:20:37;;;;;;;7.30;5.97;;;;;;;14.94;45.04;95715.41;4986069;28;20034;-69
2021/07/23 05:23:02;;;;;;;7.97;5.88;;;;;;;15.05;45.14;95715.81;4986017;28;20038;-70
2021/07/23 05:25:28;;;;;;;7.72;5.68;;;;;;;15.16;44.97;95712.53;4985557;28;20529;-70
2021/07/23 05:27:55;;;;;;;9.57;6.07;;;;;;;15.28;45.24;95711.91;4986061;28;20042;-70
2021/07/23 05:30:20;;;;;;;9.88;5.68;;;;;;;15.40;44.70;95710.28;4985003;28;20041;-70
2021/07/23 05:32:45;;;;;;;7.55;6.13;;;;;;;15.57;44.61;95710.72;4986154;28;20470;-70
2021/07/23 05:35:11;;;;;;;11.27;6.60;;;;;;;15.74;44.75;95700.38;4985226;28;20042;-70
2021/07/23 05:37:36;;;;;;;9.13;6.85;;;;;;;15.95;44.24;95701.13;4986783;28;20037;-70
2021/07/23 05:40:02;;;;;;;9.63;7.10;;;;;;;16.18;45.64;95707.91;4985517;28;20085;-70
2021/07/23 05:42:27;;;;;;;11.85;7.82;;;;;;;16.36;44.81;95709.13;4985564;28;20038;-70
2021/07/23 05:44:53;;;;;;;11.73;7.90;;;;;;;16.58;44.64;95698.06;4985302;28;20042;-70
2021/07/23 05:47:18;;;;;;;12.15;8.80;;;;;;;16.72;44.90;95710.38;4979880;28;20428;-70
2021/07/23 05:49:44;;;;;;;9.68;7.40;;;;;;;17.02;44.31;95709.81;4984880;28;20653;-70
2021/07/23 05:52:10;;;;;;;12.35;8.20;;;;;;;17.23;43.91;95717.78;5002711;28;20042;-70
2021/07/23 05:54:36;;;;;;;12.18;8.30;;;;;;;17.45;43.84;95714.69;5003878;28;20044;-72
2021/07/23 05:57:01;;;;;;;12.13;9.45;;;;;;;17.59;42.16;95712.69;5005965;28;20489;-70
2021/07/23 05:59:27;;;;;;;12.80;9.82;;;;;;;17.58;41.42;95717.28;5004960;28;20121;-71
2021/07/23 06:01:52;;;;;;;13.68;8.90;;;;;;;17.64;40.85;95713.69;5004561;28;20045;-70
2021/07/23 06:04:18;;;;;;;13.77;9.60;;;;;;;17.73;40.35;95721.47;4999525;28;20122;-70
2021/07/23 06:06:43;;;;;;;12.55;9.52;;;;;;;17.83;39.48;95720.97;5003874;28;20042;-70
2021/07/23 06:09:09;;;;;;;11.93;9.55;;;;;;;17.95;39.25;95723.81;5007488;28;20058;-70
2021/07/23 06:11:35;;;;;;;15.07;9.45;;;;;;;18.10;39.11;95716.19;5004254;28;20041;-70
2021/07/23 06:14:01;;;;;;;11.60;9.40;;;;;;;18.26;38.78;95720.13;5007679;28;20506;-70
2021/07/23 06:16:26;;;;;;;11.70;9.23;;;;;;;18.42;38.48;95718.72;5005715;28;20022;-70
2021/07/23 06:18:51;;;;;;;11.90;9.25;;;;;;;18.61;38.28;95713.34;5004308;28;20042;-71
2021/07/23 06:21:19;;;;;;;16.88;9.25;;;;;;;18.79;38.59;95723.25;5004060;28;20433;-70
2021/07/23 06:23:45;;;;;;;13.93;8.98;;;;;;;18.79;39.76;95715.16;5002624;28;20464;-70
2021/07/23 06:26:10;;;;;;;11.82;8.60;;;;;;;18.90;39.03;95718.94;5004116;28;20501;-70
2021/07/23 06:28:36;;;;;;;12.95;8.73;;;;;;;19.13;39.62;95717.38;5004515;28;20094;-71
2021/07/23 06:31:02;;;;;;;12.77;9.52;;;;;;;18.56;39.63;95722.06;5004522;28;20110;-71
2021/07/23 06:33:27;;;;;;;12.63;9.25;;;;;;;18.39;40.30;95721.03;5004068;28;20089;-70
2021/07/23 06:35:53;;;;;;;15.65;9.65;;;;;;;18.62;39.32;95716.84;5002666;28;20106;-70
2021/07/23 06:38:18;;;;;;;13.05;9.20;;;;;;;18.93;38.73;95717.66;5003903;28;20113;-70
2021/07/23 06:40:43;;;;;;;10.63;8.18;;;;;;;19.23;38.56;95722.22;5004368;28;20587;-71
2021/07/23 06:43:09;;;;;;;15.65;10.05;;;;;;;19.29;38.75;95721.31;5006534;28;20627;-70
2021/07/23 06:45:35;;;;;;;13.25;8.70;;;;;;;19.19;39.80;95718.34;5007943;28;20109;-72
2021/07/23 06:48:00;;;;;;;13.25;8.45;;;;;;;19.77;38.73;95718.66;5001112;28;20251;-70
2021/07/23 06:50:26;;;;;;;11.75;8.65;;;;;;;20.13;37.48;95723.25;5007277;28;20571;-70
2021/07/23 06:52:51;;;;;;;12.02;8.68;;;;;;;19.64;38.01;95725.13;5007206;28;20037;-71
2021/07/23 06:55:17;;;;;;;13.57;9.13;;;;;;;19.22;39.06;95731.38;5007357;28;20034;-70
2021/07/23 06:57:42;;;;;;;13.32;9.27;;;;;;;18.42;40.76;95723.28;5006700;28;20267;-70
2021/07/23 07:00:08;;;;;;;13.55;8.70;;;;;;;18.92;40.34;95724.13;5011402;28;20034;-72
2021/07/23 07:02:34;;;;;;;11.73;8.82;;;;;;;19.91;37.89;95731.94;5007709;28;20176;-70
2021/07/23 07:04:59;;;;;;;11.93;8.50;;;;;;;20.03;37.86;95729.25;5010278;28;20380;-71
2021/07/23 07:07:25;;;;;;;11.68;7.88;;;;;;;20.19;37.40;95719.63;5006292;28;20054;-70
2021/07/23 07:09:51;;;;;;;13.52;8.73;;;;;;;20.39;36.74;95723.81;5009409;28;20054;-75
2021/07/23 07:12:17;;;;;;;13.73;9.40;;;;;;;20.34;36.71;95727.22;5008917;28;20366;-73
2021/07/23 07:14:42;;;;;;;14.35;9.52;;;;;;;19.23;38.51;95729.50;5007770;28;20045;-75
2021/07/23 07:17:07;;;;;;;15.57;9.85;;;;;;;18.78;37.84;95729.72;5006339;28;20041;-74
2021/07/23 07:19:33;;;;;;;12.48;9.55;;;;;;;19.58;37.08;95732.28;5010297;28;20041;-74
2021/07/23 07:21:58;;;;;;;12.70;8.85;;;;;;;20.63;36.13;95731.88;5006134;28;20046;-75
2021/07/23 07:24:24;;;;;;;13.02;8.60;;;;;;;21.12;35.37;95723.31;5009819;28;20021;-75
2021/07/23 07:26:49;;;;;;;13.75;9.25;;;;;;;20.70;35.68;95729.88;5005917;28;20430;-75
2021/07/23 07:29:15;;;;;;;13.40;9.52;;;;;;;20.50;35.71;95733.78;5008928;28;20042;-75
2021/07/23 07:31:40;;;;;;;14.65;9.32;;;;;;;20.21;36.18;95733.69;5009614;28;20127;-75
2021/07/23 07:34:06;;;;;;;13.88;9.90;;;;;;;20.19;36.69;95733.94;5006116;28;20034;-74
2021/07/23 07:36:32;;;;;;;14.23;9.45;;;;;;;20.10;36.63;95735.38;5005694;28;20025;-75
2021/07/23 07:38:58;;;;;;;12.88;9.75;;;;;;;19.76;36.48;95735.09;5005882;28;20511;-75
2021/07/23 07:41:24;;;;;;;14.98;9.95;;;;;;;19.39;37.42;95736.97;4989137;28;20109;-75
2021/07/23 07:43:50;;;;;;;15.50;10.35;;;;;;;19.35;37.51;95743.88;5010194;28;20026;-75
2021/07/23 07:46:15;;;;;;;13.18;9.32;;;;;;;19.45;37.25;95740.59;5004201;28;20049;-76
2021/07/23 07:48:40;;;;;;;14.95;9.90;;;;;;;19.70;38.31;95744.97;5004918;28;20388;-75
2021/07/23 07:51:09;;;;;;;16.40;10.02;;;;;;;19.81;37.78;95740.63;5005047;28;20364;-75
2021/07/23 07:53:35;;;;;;;16.38;10.68;;;;;;;20.03;37.45;95745.47;5004113;28;20076;-75
2021/07/23 07:56:01;;;;;;;15.68;10.38;;;;;;;20.03;37.47;95737.38;4984372;28;20069;-75
2021/07/23 07:58:26;;;;;;;15.02;10.60;;;;;;;19.97;36.89;95739.13;5002533;28;20451;-75
2021/07/23 08:00:52;;;;;;;16.17;10.30;;;;;;;20.11;36.07;95739.72;5004866;28;20042;-75
2021/07/23 08:03:17;;;;;;;15.77;9.63;;;;;;;20.63;35.57;95734.59;5006082;28;20038;-74
2021/07/23 08:05:42;;;;;;;15.75;10.68;;;;;;;20.58;36.01;95732.56;5007440;28;20037;-74
2021/07/23 08:08:10;;;;;;;18.17;11.23;;;;;;;20.74;36.01;95731.81;5006305;28;20045;-75
2021/07/23 08:10:36;;;;;;;16.00;10.73;;;;;;;20.80;35.78;95730.03;5006578;28;20145;-75
2021/07/23 08:13:05;;;;;;;15.03;10.70;;;;;;;21.03;35.05;95732.88;4987713;28;20192;-75
2021/07/23 08:15:30;;;;;;;14.70;10.18;;;;;;;21.03;35.10;95733.72;4999332;28;20340;-75
2021/07/23 08:17:57;;;;;;;17.65;10.32;;;;;;;21.12;34.93;95721.41;5004317;28;20038;-73
2021/07/23 08:20:23;;;;;;;15.45;10.60;;;;;;;20.70;34.98;95729.88;5004913;28;20065;-74
2021/07/23 08:22:49;;;;;;;14.45;10.18;;;;;;;20.94;34.86;95724.34;5005675;28;20041;-73
2021/07/23 08:25:14;;;;;;;18.33;10.13;;;;;;;20.89;35.29;95730.47;5004426;28;20044;-73
2021/07/23 08:27:39;;;;;;;14.55;9.95;;;;;;;20.40;36.28;95728.16;5005648;28;20034;-73
2021/07/23 08:30:06;;;;;;;14.30;10.48;;;;;;;20.37;36.03;95721.34;5005104;28;20044;-73
2021/07/23 08:32:36;;;;;;;13.15;8.85;;;;;;;21.05;34.55;95714.53;5004525;28;20144;-73
2021/07/23 08:35:02;;;;;;;13.93;9.57;;;;;;;21.02;34.36;95715.84;5007572;28;20115;-73
2021/07/23 08:37:27;;;;;;;9.80;7.35;;;;;;;21.31;34.89;95718.53;5005733;28;20586;-73
2021/07/23 08:39:53;;;;;;;13.68;9.57;;;;;;;21.95;33.06;95713.84;5005357;28;20048;-74
2021/07/23 08:42:22;;;;;;;16.80;10.43;;;;;;;21.94;33.28;95714.09;5004743;28;20040;-74
2021/07/23 08:44:48;;;;;;;13.25;9.57;;;;;;;22.52;32.86;95705.63;5004952;28;20048;-75
2021/07/23 08:47:14;;;;;;;13.73;9.20;;;;;;;22.71;31.81;95714.28;4992227;28;20058;-77
2021/07/23 08:49:39;;;;;;;15.43;10.07;;;;;;;22.19;33.53;95715.53;5002738;28;20140;-74
2021/07/23 08:52:05;;;;;;;13.30;8.57;;;;;;;22.38;32.28;95718.75;5007365;28;20525;-74
2021/07/23 08:54:32;;;;;;;12.45;9.15;;;;;;;22.43;33.24;95723.44;5003216;28;20362;-73
2021/07/23 08:56:57;;;;;;;13.68;9.23;;;;;;;22.72;31.65;95713.22;5015101;28;20037;-74
2021/07/23 08:59:22;;;;;;;14.02;10.38;;;;;;;22.62;31.50;95713.09;5009902;28;20382;-74
2021/07/23 09:02:04;;;;;;;15.05;9.38;;;;;;;22.79;30.66;95716.56;5004712;28;20030;-73
2021/07/23 09:04:37;;;;;;;15.10;10.20;;;;;;;22.66;31.58;95715.06;4995602;28;20033;-73
2021/07/23 09:07:15;;;;;;;14.50;9.13;;;;;;;22.71;31.67;95724.31;5006045;28;20356;-73
2021/07/23 09:09:41;;;;;;;13.40;9.63;;;;;;;22.55;32.02;95724.16;5003617;28;20057;-73
2021/07/23 09:12:06;;;;;;;13.45;9.73;;;;;;;22.09;31.81;95722.44;5003678;28;20034;-74
2021/07/23 09:14:32;;;;;;;11.38;9.35;;;;;;;22.47;30.94;95711.00;5007654;28;20033;-74
2021/07/23 09:16:57;;;;;;;12.25;9.65;;;;;;;22.70;31.39;95714.56;5003010;28;20394;-75
2021/07/23 09:19:23;;;;;;;13.38;9.32;;;;;;;22.65;31.23;95724.28;5007327;28;20153;-75
2021/07/23 09:21:55;;;;;;;14.13;9.18;;;;;;;22.99;30.62;95715.13;5003498;28;20041;-75
2021/07/23 09:24:20;;;;;;;12.68;8.10;;;;;;;23.30;30.02;95712.75;5004670;28;20042;-75
2021/07/23 09:26:46;;;;;;;13.57;8.82;;;;;;;23.50;28.85;95711.28;4987827;28;20042;-75
2021/07/23 09:29:12;;;;;;;10.27;8.40;;;;;;;23.87;27.96;95698.78;5005277;28;20412;-75
2021/07/23 09:31:37;;;;;;;11.48;8.27;;;;;;;24.00;28.27;95699.41;5004467;28;20345;-74
2021/07/23 09:34:04;;;;;;;14.30;7.93;;;;;;;24.33;28.55;95708.28;5004049;28;20081;-74
2021/07/23 09:36:30;;;;;;;14.52;8.65;;;;;;;24.47;28.74;95702.38;5001405;28;20108;-74
2021/07/23 09:39:06;;;;;;;12.10;9.00;;;;;;;24.01;28.37;95698.31;5004639;28;20118;-74
2021/07/23 09:41:33;;;;;;;17.20;9.68;;;;;;;23.38;28.76;95699.72;5003944;28;20086;-74
2021/07/23 09:44:07;;;;;;;13.50;8.73;;;;;;;23.59;28.41;95697.19;5003304;28;20463;-74
2021/07/23 09:46:33;;;;;;;13.23;8.95;;;;;;;23.55;28.87;95699.59;5005364;28;20630;-74
2021/07/23 09:49:01;;;;;;;11.60;8.63;;;;;;;23.69;28.33;95689.94;5002825;28;20101;-74
2021/07/23 09:51:27;;;;;;;14.85;8.80;;;;;;;23.75;27.75;95695.41;5004544;28;20327;-74
2021/07/23 09:53:56;;;;;;;11.85;8.38;;;;;;;23.52;28.83;95695.50;5003775;28;20112;-74
2021/07/23 09:56:22;;;;;;;14.73;10.93;;;;;;;23.71;29.35;95695.09;5004784;28;20033;-74
2021/07/23 09:58:52;;;;;;;11.60;9.00;;;;;;;24.19;28.80;95678.84;4999743;28;20172;-74
2021/07/23 10:01:29;;;;;;;13.60;8.65;;;;;;;24.22;26.60;95680.19;5009266;28;20527;-75
2021/07/23 10:03:56;;;;;;;15.85;8.38;;;;;;;24.76;27.44;95671.97;5002453;28;20054;-74
2021/07/23 10:06:49;;;;;;;17.35;8.75;;;;;;;25.07;27.25;95672.88;4991746;28;20135;-74
2021/07/23 10:09:16;;;;;;;12.85;7.70;;;;;;;25.76;27.07;95671.78;4997189;28;20122;-74
2021/07/23 10:11:42;;;;;;;10.82;7.55;;;;;;;25.43;25.98;95663.88;5000976;28;20048;-75
2021/07/23 10:14:09;;;;;;;11.63;8.03;;;;;;;24.80;27.12;95667.63;5000404;28;20029;-74
2021/07/23 10:16:34;;;;;;;12.50;8.70;;;;;;;24.68;27.68;95667.88;5001201;28;20383;-74
2021/07/23 10:19:01;;;;;;;10.88;7.72;;;;;;;25.26;26.24;95666.06;5001255;28;20239;-75
2021/07/23 10:21:26;;;;;;;10.05;7.70;;;;;;;25.05;27.18;95668.78;5003725;28;20031;-74
2021/07/23 10:23:52;;;;;;;10.48;7.15;;;;;;;25.08;26.26;95660.88;5008099;28;20053;-74
2021/07/23 10:26:18;;;;;;;18.10;8.43;;;;;;;24.88;26.22;95666.28;5004931;28;20564;-73
2021/07/23 10:28:43;;;;;;;10.13;7.33;;;;;;;24.75;26.60;95662.19;5006614;28;20361;-73
2021/07/23 10:31:18;;;;;;;12.27;7.50;;;;;;;24.62;26.48;95661.59;5004559;28;20290;-73
2021/07/23 10:33:50;;;;;;;10.07;7.00;;;;;;;24.50;26.78;95666.47;5004908;28;20056;-73
2021/07/23 10:36:42;;;;;;;13.25;8.07;;;;;;;24.61;25.92;95659.94;5003260;28;20046;-77
2021/07/23 10:39:09;;;;;;;10.77;7.25;;;;;;;24.49;26.99;95653.94;5003317;28;20054;-74
2021/07/23 10:41:41;;;;;;;10.32;7.28;;;;;;;24.36;26.88;95655.25;5004012;28;20038;-73
2021/07/23 10:44:28;;;;;;;13.70;7.80;;;;;;;23.56;26.98;95655.06;5002238;28;20045;-74
2021/07/23 10:46:55;;;;;;;12.32;8.20;;;;;;;23.56;27.61;95657.78;5006856;28;20034;-73
2021/07/23 10:49:26;;;;;;;13.60;7.32;;;;;;;25.12;26.04;95644.81;5006559;28;20390;-72
2021/07/23 10:51:55;;;;;;;9.65;7.05;;;;;;;25.56;25.94;95650.84;5007662;28;20373;-74
2021/07/23 10:54:24;;;;;;;15.60;6.72;;;;;;;26.16;25.10;95638.41;5000747;28;20168;-74
2021/07/23 10:57:00;;;;;;;11.02;7.10;;;;;;;26.91;23.33;95641.34;5005960;28;20077;-73
2021/07/23 10:59:43;;;;;;;13.63;7.32;;;;;;;27.16;22.70;95632.19;5002078;28;20521;-73
2021/07/23 11:02:14;;;;;;;22.20;7.68;;;;;;;26.92;24.48;95632.03;5004940;28;20056;-75
2021/07/23 11:04:44;;;;;;;13.13;7.63;;;;;;;27.20;23.57;95627.78;5002113;28;20420;-76
2021/07/23 11:07:10;;;;;;;11.20;7.57;;;;;;;27.44;24.08;95631.66;5001655;28;20037;-75
2021/07/23 11:09:36;;;;;;;13.10;7.20;;;;;;;26.90;23.95;95626.88;5001327;28;20235;-75
2021/07/23 11:12:21;;;;;;;10.55;7.00;;;;;;;26.52;23.67;95621.06;5001103;28;20042;-75
2021/07/23 11:15:09;;;;;;;10.18;7.50;;;;;;;26.06;24.09;95622.91;5000422;28;20404;-74
2021/07/23 11:17:46;;;;;;;11.10;7.45;;;;;;;25.75;24.49;95622.97;5002853;28;20061;-74
2021/07/23 11:20:12;;;;;;;12.15;7.70;;;;;;;25.91;25.10;95624.59;5003145;28;20399;-74
2021/07/23 11:22:37;;;;;;;11.23;8.07;;;;;;;25.75;25.44;95612.91;5002462;28;20133;-75
2021/07/23 11:25:05;;;;;;;11.43;7.30;;;;;;;25.27;25.80;95618.66;5001670;28;20117;-74
2021/07/23 11:27:33;;;;;;;13.93;9.20;;;;;;;25.44;25.16;95612.94;4997631;28;20037;-74